Time;durP1;ratioP1;P1;durP2;ratioP2;P2;SDS_P1;SDS_P2;PMS_P1;PMS_P2;Temp;Humidity;BMP_temperature;BMP_pressure;BME280_temperature;BME280_humidity;BME280_pressure;Samples;Min_cycle;Max_cycle;Signal;HPM_P1;HPM_P2
2023/08/04 00:01:20;;;;;;;6.65;2.63;;;15.30;99.90;;;;;;4992116;28;20048;-81
2023/08/04 00:03:46;;;;;;;3.50;1.77;;;15.40;99.90;;;;;;4985806;28;20029;-81
2023/08/04 00:06:11;;;;;;;8.25;2.30;;;15.40;99.90;;;;;;4990510;28;20385;-81
2023/08/04 00:08:37;;;;;;;5.88;2.40;;;15.50;99.90;;;;;;4993553;28;20040;-81
2023/08/04 00:11:03;;;;;;;10.65;2.65;;;15.40;99.90;;;;;;4979910;28;20033;-82
2023/08/04 00:13:30;;;;;;;6.68;2.33;;;15.40;99.90;;;;;;4979846;28;20045;-81
2023/08/04 00:16:06;;;;;;;7.25;2.30;;;15.40;99.90;;;;;;4992988;28;20155;-81
2023/08/04 00:18:32;;;;;;;3.97;2.25;;;15.40;99.90;;;;;;4995366;28;20709;-81
2023/08/04 00:20:57;;;;;;;3.22;1.90;;;15.40;99.90;;;;;;4977826;28;20029;-81
2023/08/04 00:23:23;;;;;;;2.15;1.50;;;15.40;99.90;;;;;;5003490;28;20828;-80
2023/08/04 00:25:49;;;;;;;5.50;1.90;;;15.40;99.90;;;;;;4980321;28;20405;-80
2023/08/04 00:28:14;;;;;;;6.18;1.95;;;15.30;99.90;;;;;;4994784;28;20049;-82
2023/08/04 00:30:40;;;;;;;8.00;2.75;;;15.30;99.90;;;;;;5023700;28;20037;-81
2023/08/04 00:33:05;;;;;;;9.15;2.30;;;15.30;99.90;;;;;;4990603;28;20418;-80
2023/08/04 00:35:31;;;;;;;8.63;2.95;;;15.30;99.90;;;;;;5008284;28;20454;-80
2023/08/04 00:37:56;;;;;;;5.38;2.30;;;15.30;99.90;;;;;;4976027;28;20037;-80
2023/08/04 00:40:22;;;;;;;6.93;1.85;;;15.30;99.90;;;;;;4991666;28;20029;-80
2023/08/04 00:42:47;;;;;;;3.30;1.95;;;15.20;99.90;;;;;;4974367;28;20406;-80
2023/08/04 00:45:13;;;;;;;6.78;2.03;;;15.30;99.90;;;;;;4985107;28;20039;-80
2023/08/04 00:47:39;;;;;;;5.35;1.98;;;15.40;99.90;;;;;;4974385;28;20120;-80
2023/08/04 00:50:06;;;;;;;4.38;2.30;;;15.30;99.90;;;;;;4989602;28;20120;-79
2023/08/04 00:52:31;;;;;;;4.22;2.17;;;15.30;99.90;;;;;;4992515;28;20132;-80
2023/08/04 00:54:57;;;;;;;5.28;2.40;;;15.30;99.90;;;;;;4976907;28;20565;-81
2023/08/04 00:57:22;;;;;;;5.78;2.08;;;15.30;99.90;;;;;;4986374;28;20026;-82
2023/08/04 00:59:48;;;;;;;6.72;2.28;;;15.30;99.90;;;;;;4988925;28;20065;-83
2023/08/04 01:02:14;;;;;;;4.32;2.15;;;15.20;99.90;;;;;;4968893;28;20029;-83
2023/08/04 01:04:39;;;;;;;4.38;1.98;;;15.30;99.90;;;;;;4993040;28;20033;-83
2023/08/04 01:07:17;;;;;;;5.70;1.83;;;15.20;99.90;;;;;;5024404;28;20478;-83
2023/08/04 01:09:58;;;;;;;7.65;2.78;;;15.10;99.90;;;;;;5005811;28;20075;-82
2023/08/04 01:12:31;;;;;;;7.82;2.63;;;15.20;99.90;;;;;;5004647;28;20128;-83
2023/08/04 01:14:56;;;;;;;4.68;2.70;;;15.10;99.90;;;;;;4992553;28;20048;-83
2023/08/04 01:17:26;;;;;;;6.10;2.67;;;15.10;99.90;;;;;;5005247;28;20029;-82
2023/08/04 01:19:52;;;;;;;3.47;2.15;;;15.10;99.90;;;;;;4977575;28;20029;-83
2023/08/04 01:22:17;;;;;;;8.43;3.53;;;15.10;99.90;;;;;;4976772;28;20401;-83
2023/08/04 01:24:43;;;;;;;6.25;2.42;;;15.10;99.90;;;;;;4990078;28;20079;-82
2023/08/04 01:27:09;;;;;;;10.32;3.25;;;15.10;99.90;;;;;;4970586;28;20128;-83
2023/08/04 01:29:36;;;;;;;5.82;2.33;;;15.10;99.90;;;;;;4973065;28;20034;-82
2023/08/04 01:32:02;;;;;;;4.80;2.63;;;15.10;99.90;;;;;;4993414;28;20043;-82
2023/08/04 01:34:28;;;;;;;5.30;2.80;;;15.10;99.90;;;;;;4990426;28;20053;-83
2023/08/04 01:36:53;;;;;;;11.50;3.20;;;15.10;99.90;;;;;;4974060;28;20041;-82
2023/08/04 01:39:19;;;;;;;5.38;2.55;;;15.10;99.90;;;;;;4978486;28;20409;-83
2023/08/04 01:41:44;;;;;;;4.97;2.67;;;15.10;99.90;;;;;;4987523;28;20474;-83
2023/08/04 01:44:10;;;;;;;6.60;3.08;;;15.10;99.90;;;;;;5003982;28;20129;-82
2023/08/04 01:46:36;;;;;;;5.75;2.75;;;15.10;99.90;;;;;;5008897;28;20026;-82
2023/08/04 01:49:01;;;;;;;7.35;3.20;;;15.10;99.90;;;;;;5006093;28;20091;-83
2023/08/04 01:51:27;;;;;;;7.57;2.88;;;15.00;99.90;;;;;;4976425;28;20145;-81
2023/08/04 01:53:52;;;;;;;12.35;4.30;;;15.00;99.90;;;;;;4968249;28;20033;-82
2023/08/04 01:56:18;;;;;;;9.07;4.13;;;15.00;99.90;;;;;;5005651;28;20099;-82
2023/08/04 01:58:43;;;;;;;14.27;4.32;;;15.00;99.90;;;;;;4987015;28;20037;-82
2023/08/04 02:01:09;;;;;;;6.22;2.50;;;14.90;99.90;;;;;;4991502;28;20468;-82
2023/08/04 02:03:36;;;;;;;8.43;4.15;;;14.90;99.90;;;;;;4977839;28;20118;-82
2023/08/04 02:06:02;;;;;;;12.35;4.70;;;14.90;99.90;;;;;;4989389;28;20461;-82
2023/08/04 02:08:28;;;;;;;9.18;3.70;;;14.90;99.90;;;;;;4978357;28;20127;-82
2023/08/04 02:10:54;;;;;;;7.05;3.50;;;14.90;99.90;;;;;;4988975;28;20453;-81
2023/08/04 02:13:19;;;;;;;13.95;3.83;;;15.00;99.90;;;;;;4976473;28;20025;-82
2023/08/04 02:15:45;;;;;;;6.85;3.60;;;14.90;99.90;;;;;;4988359;28;20108;-82
2023/08/04 02:18:10;;;;;;;10.93;3.88;;;14.90;99.90;;;;;;4990507;28;20489;-82
2023/08/04 02:20:36;;;;;;;7.80;3.63;;;14.90;99.90;;;;;;5005063;28;20044;-81
2023/08/04 02:23:01;;;;;;;5.28;2.80;;;14.90;99.90;;;;;;4987870;28;20034;-81
2023/08/04 02:25:27;;;;;;;11.52;3.90;;;14.90;99.90;;;;;;5005160;28;20048;-82
2023/08/04 02:27:53;;;;;;;6.38;2.40;;;14.90;99.90;;;;;;4975133;28;20107;-82
2023/08/04 02:30:18;;;;;;;8.63;2.65;;;14.80;99.90;;;;;;4987794;28;20037;-82
2023/08/04 02:32:44;;;;;;;5.47;2.97;;;14.80;99.90;;;;;;5003336;28;20381;-81
2023/08/04 02:35:09;;;;;;;7.50;3.38;;;14.80;99.90;;;;;;5005344;28;20319;-82
2023/08/04 02:37:35;;;;;;;7.47;2.75;;;14.80;99.90;;;;;;5006173;28;20385;-80
2023/08/04 02:40:00;;;;;;;4.63;2.72;;;14.70;99.90;;;;;;5002494;28;20176;-82
2023/08/04 02:42:26;;;;;;;4.72;2.50;;;14.70;99.90;;;;;;4992729;28;20539;-81
2023/08/04 02:44:54;;;;;;;7.50;3.28;;;14.70;99.90;;;;;;4974030;28;20164;-82
2023/08/04 02:47:19;;;;;;;10.82;2.65;;;14.80;99.90;;;;;;4996954;28;20481;-82
2023/08/04 02:49:45;;;;;;;8.27;3.05;;;14.70;99.90;;;;;;4993537;28;20043;-80
2023/08/04 02:52:14;;;;;;;4.63;2.97;;;14.70;99.90;;;;;;4977892;28;20392;-82
2023/08/04 02:54:40;;;;;;;6.00;2.45;;;14.70;99.90;;;;;;5000133;28;20037;-82
2023/08/04 02:57:06;;;;;;;13.07;4.05;;;14.60;99.90;;;;;;4992609;28;20041;-81
2023/08/04 02:59:31;;;;;;;10.68;3.15;;;14.60;99.90;;;;;;5008669;28;20376;-82
2023/08/04 03:01:57;;;;;;;9.15;2.50;;;14.50;99.90;;;;;;4992255;28;20045;-81
2023/08/04 03:04:23;;;;;;;9.20;3.55;;;14.50;99.90;;;;;;5005994;28;20147;-81
2023/08/04 03:06:48;;;;;;;8.45;2.85;;;14.50;99.90;;;;;;4986535;28;20427;-82
2023/08/04 03:09:14;;;;;;;6.47;2.78;;;14.50;99.90;;;;;;5008808;28;20590;-82
2023/08/04 03:11:39;;;;;;;7.90;3.70;;;14.50;99.90;;;;;;4984274;28;20047;-82
2023/08/04 03:14:05;;;;;;;11.02;4.32;;;14.50;99.90;;;;;;4998442;28;20544;-82
2023/08/04 03:16:30;;;;;;;5.68;3.30;;;14.50;99.90;;;;;;4974214;28;20044;-81
2023/08/04 03:18:56;;;;;;;11.52;4.53;;;14.40;99.90;;;;;;4994757;28;20039;-81
2023/08/04 03:21:21;;;;;;;11.02;4.47;;;14.60;99.90;;;;;;5010260;28;20055;-82
2023/08/04 03:23:47;;;;;;;10.20;3.72;;;14.60;99.90;;;;;;4993579;28;20797;-82
2023/08/04 03:26:13;;;;;;;5.80;3.03;;;14.50;99.90;;;;;;4984827;28;20374;-82
2023/08/04 03:28:38;;;;;;;10.10;5.00;;;14.60;99.90;;;;;;5006586;28;20037;-82
2023/08/04 03:31:04;;;;;;;5.95;2.67;;;14.70;99.90;;;;;;5006079;28;20122;-80
2023/08/04 03:33:29;;;;;;;8.00;4.03;;;14.70;99.90;;;;;;4991127;28;20057;-82
2023/08/04 03:35:55;;;;;;;13.00;5.15;;;14.70;99.90;;;;;;4995426;28;20670;-82
2023/08/04 03:38:20;;;;;;;12.10;4.72;;;14.70;99.90;;;;;;4990382;28;20121;-82
2023/08/04 03:40:46;;;;;;;9.02;3.45;;;14.50;99.90;;;;;;5025811;28;20060;-81
2023/08/04 03:43:11;;;;;;;8.68;3.95;;;14.50;99.90;;;;;;4989987;28;20045;-83
2023/08/04 03:45:37;;;;;;;7.45;4.00;;;14.50;99.90;;;;;;4979324;28;20040;-82
2023/08/04 03:48:03;;;;;;;17.40;5.30;;;14.50;99.90;;;;;;4994684;28;20137;-82
2023/08/04 03:50:29;;;;;;;7.07;3.33;;;14.50;99.90;;;;;;4980323;28;20029;-81
2023/08/04 03:52:54;;;;;;;7.05;3.97;;;14.50;99.90;;;;;;4990608;28;20093;-82
2023/08/04 03:55:20;;;;;;;7.85;3.88;;;14.50;99.90;;;;;;4992327;28;20442;-81
2023/08/04 03:57:45;;;;;;;22.65;5.63;;;14.40;99.90;;;;;;4990503;28;20030;-82
2023/08/04 04:00:11;;;;;;;12.35;6.00;;;14.50;99.90;;;;;;4993337;28;20045;-82
2023/08/04 04:02:37;;;;;;;11.38;4.38;;;14.50;99.90;;;;;;4993840;28;20409;-82
2023/08/04 04:05:02;;;;;;;6.93;4.10;;;14.50;99.90;;;;;;4992045;28;20486;-83
2023/08/04 04:07:28;;;;;;;14.20;6.25;;;14.50;99.90;;;;;;4990949;28;20413;-82
2023/08/04 04:09:53;;;;;;;7.20;3.53;;;14.50;99.90;;;;;;4980082;28;20030;-82
2023/08/04 04:12:19;;;;;;;6.93;4.32;;;14.50;99.90;;;;;;5005360;28;20100;-82
2023/08/04 04:14:44;;;;;;;12.55;5.30;;;14.50;99.90;;;;;;4983820;28;20703;-82
2023/08/04 04:17:10;;;;;;;12.07;4.55;;;14.60;99.90;;;;;;4995232;28;20452;-82
2023/08/04 04:19:36;;;;;;;16.75;5.97;;;14.50;99.90;;;;;;4992079;28;20401;-81
2023/08/04 04:22:01;;;;;;;11.15;4.32;;;14.50;99.90;;;;;;4990205;28;20030;-82
2023/08/04 04:24:27;;;;;;;9.02;3.53;;;14.40;99.90;;;;;;4990897;28;20033;-82
2023/08/04 04:26:52;;;;;;;9.43;2.97;;;14.60;99.90;;;;;;4974233;28;20041;-82
2023/08/04 04:29:18;;;;;;;5.78;2.92;;;14.70;99.90;;;;;;5004882;28;20072;-82
2023/08/04 04:31:44;;;;;;;7.28;3.47;;;14.60;99.90;;;;;;5007811;28;20532;-81
2023/08/04 04:34:09;;;;;;;9.30;4.45;;;14.60;99.90;;;;;;5008283;28;20057;-82
2023/08/04 04:36:35;;;;;;;8.60;3.58;;;14.70;99.90;;;;;;4974631;28;20240;-82
2023/08/04 04:39:01;;;;;;;10.90;5.28;;;14.60;99.90;;;;;;4982952;28;20038;-82
2023/08/04 04:41:27;;;;;;;13.13;4.65;;;14.60;99.90;;;;;;5005101;28;20125;-81
2023/08/04 04:43:53;;;;;;;10.50;5.18;;;14.60;99.90;;;;;;4989389;28;20092;-82
2023/08/04 04:46:19;;;;;;;5.68;4.13;;;14.60;99.90;;;;;;4976135;28;20038;-81
2023/08/04 04:48:44;;;;;;;10.13;4.97;;;14.70;99.90;;;;;;5006840;28;20509;-82
2023/08/04 04:51:10;;;;;;;6.93;4.10;;;14.60;99.90;;;;;;4985693;28;20555;-81
2023/08/04 04:53:38;;;;;;;5.97;3.05;;;14.60;99.90;;;;;;4978876;28;20045;-81
2023/08/04 04:56:05;;;;;;;5.35;2.90;;;14.60;99.90;;;;;;4996842;28;20037;-82
2023/08/04 04:58:30;;;;;;;7.75;4.20;;;14.70;99.90;;;;;;4975527;28;20067;-81
2023/08/04 05:01:03;;;;;;;5.70;3.20;;;14.80;99.90;;;;;;5007716;28;20068;-81
2023/08/04 05:03:28;;;;;;;12.40;3.90;;;14.70;99.90;;;;;;4991134;28;20124;-81
2023/08/04 05:05:54;;;;;;;8.52;3.63;;;14.80;99.90;;;;;;4987035;28;20124;-81
2023/08/04 05:08:19;;;;;;;8.63;4.50;;;14.70;99.90;;;;;;4976760;28;20037;-83
2023/08/04 05:10:52;;;;;;;11.15;4.75;;;14.70;99.90;;;;;;4988589;28;20033;-81
2023/08/04 05:13:19;;;;;;;10.85;5.47;;;14.70;99.90;;;;;;4993586;28;20108;-82
2023/08/04 05:15:47;;;;;;;8.43;4.55;;;14.80;99.90;;;;;;4977479;28;20507;-82
2023/08/04 05:18:13;;;;;;;9.18;4.53;;;14.80;99.90;;;;;;4974789;28;20025;-81
2023/08/04 05:20:39;;;;;;;11.30;3.88;;;14.80;99.90;;;;;;4989949;28;20103;-80
2023/08/04 05:23:04;;;;;;;10.88;4.40;;;14.90;99.90;;;;;;4976497;28;20040;-80
2023/08/04 05:25:30;;;;;;;8.50;3.63;;;14.90;99.90;;;;;;4993583;28;20080;-81
2023/08/04 05:27:55;;;;;;;7.32;4.00;;;14.90;99.90;;;;;;4990401;28;20041;-80
2023/08/04 05:30:21;;;;;;;8.43;4.72;;;14.90;99.90;;;;;;4973677;28;20029;-81
2023/08/04 05:32:46;;;;;;;6.07;3.25;;;15.10;99.90;;;;;;5004932;28;20033;-81
2023/08/04 05:35:12;;;;;;;16.80;6.15;;;15.10;99.90;;;;;;4992472;28;20454;-81
2023/08/04 05:37:38;;;;;;;7.75;3.83;;;15.20;99.90;;;;;;4987276;28;20029;-80
2023/08/04 05:40:05;;;;;;;7.03;4.53;;;15.20;99.90;;;;;;4976735;28;20915;-80
2023/08/04 05:42:31;;;;;;;7.82;3.63;;;15.30;99.90;;;;;;5006632;28;20487;-85
2023/08/04 05:44:56;;;;;;;12.38;6.45;;;15.30;99.90;;;;;;4993021;28;20105;-85
2023/08/04 05:47:25;;;;;;;10.35;5.07;;;15.50;99.90;;;;;;4989177;28;20571;-84
2023/08/04 05:49:51;;;;;;;13.27;5.90;;;15.40;99.90;;;;;;4976039;28;20033;-84
2023/08/04 05:52:16;;;;;;;17.52;6.43;;;15.50;99.90;;;;;;4973467;28;20044;-84
2023/08/04 05:54:42;;;;;;;8.00;4.85;;;15.50;99.90;;;;;;4976547;28;20033;-84
2023/08/04 05:57:08;;;;;;;9.27;4.50;;;15.60;99.90;;;;;;4993986;28;20034;-85
2023/08/04 05:59:33;;;;;;;13.90;7.25;;;15.60;99.90;;;;;;5016738;28;20052;-84
2023/08/04 06:01:59;;;;;;;8.50;6.82;;;15.70;99.90;;;;;;4984357;28;20087;-84
2023/08/04 06:04:26;;;;;;;12.85;7.10;;;15.80;99.90;;;;;;4984554;28;20125;-84
2023/08/04 06:06:52;;;;;;;13.13;6.85;;;16.00;99.90;;;;;;4998645;28;20044;-85
2023/08/04 06:09:17;;;;;;;15.68;7.32;;;16.00;99.90;;;;;;4993964;28;20042;-84
2023/08/04 06:11:43;;;;;;;11.98;6.63;;;16.00;99.90;;;;;;5013479;28;20053;-83
2023/08/04 06:14:08;;;;;;;10.27;5.35;;;16.10;99.90;;;;;;4992943;28;20120;-83
2023/08/04 06:16:34;;;;;;;13.13;7.05;;;16.10;99.90;;;;;;4994282;28;20093;-84
2023/08/04 06:18:59;;;;;;;14.02;6.93;;;16.20;99.90;;;;;;4984553;28;20029;-84
2023/08/04 06:21:25;;;;;;;13.45;7.38;;;16.20;99.90;;;;;;4981701;28;20343;-83
2023/08/04 06:23:53;;;;;;;9.60;6.15;;;16.30;99.90;;;;;;4980926;28;20044;-84
2023/08/04 06:26:19;;;;;;;14.85;7.85;;;16.40;99.90;;;;;;4989946;28;20093;-84
2023/08/04 06:28:44;;;;;;;15.98;8.35;;;16.40;99.90;;;;;;4978388;28;20171;-83
2023/08/04 06:31:10;;;;;;;17.38;8.90;;;16.40;99.90;;;;;;5006376;28;20109;-82
2023/08/04 06:33:36;;;;;;;11.90;7.35;;;16.50;99.90;;;;;;5008333;28;20115;-82
2023/08/04 06:36:01;;;;;;;19.23;9.68;;;16.60;99.90;;;;;;4977043;28;20034;-83
2023/08/04 06:38:27;;;;;;;15.65;11.05;;;16.70;99.90;;;;;;4978747;28;20038;-83
2023/08/04 06:40:52;;;;;;;17.38;10.07;;;16.80;99.90;;;;;;4990052;28;20083;-83
2023/08/04 06:43:18;;;;;;;20.42;11.80;;;16.80;99.90;;;;;;4993224;28;20045;-84
2023/08/04 06:45:47;;;;;;;16.20;10.45;;;16.90;99.90;;;;;;4978508;28;20616;-83
2023/08/04 06:48:12;;;;;;;32.83;14.95;;;17.00;99.90;;;;;;4987436;28;20053;-84
2023/08/04 06:50:38;;;;;;;21.83;12.32;;;17.10;99.90;;;;;;5004895;28;20049;-83
2023/08/04 06:53:05;;;;;;;21.63;11.40;;;17.20;99.90;;;;;;4973550;28;20061;-82
2023/08/04 06:55:30;;;;;;;19.05;10.82;;;17.20;99.90;;;;;;4990918;28;20659;-82
2023/08/04 06:57:56;;;;;;;16.92;10.30;;;17.30;99.90;;;;;;4999161;28;20026;-82
2023/08/04 07:00:21;;;;;;;17.30;11.48;;;17.40;99.90;;;;;;4988385;28;20048;-81
2023/08/04 07:02:48;;;;;;;17.23;12.18;;;17.40;99.90;;;;;;5001715;28;20032;-81
2023/08/04 07:05:14;;;;;;;17.08;10.25;;;17.50;99.90;;;;;;5003784;28;20030;-82
2023/08/04 07:07:40;;;;;;;19.92;12.30;;;17.50;99.90;;;;;;5005590;28;20993;-82
2023/08/04 07:10:06;;;;;;;15.60;9.85;;;17.60;99.90;;;;;;5003103;28;20113;-82
2023/08/04 07:12:32;;;;;;;15.23;9.75;;;17.80;99.90;;;;;;5003992;28;20088;-82
2023/08/04 07:14:58;;;;;;;24.48;12.35;;;17.80;99.90;;;;;;4978585;28;20041;-81
2023/08/04 07:17:24;;;;;;;23.10;12.80;;;17.90;99.90;;;;;;5018615;28;20041;-80
2023/08/04 07:19:50;;;;;;;17.45;12.82;;;17.90;99.90;;;;;;4999572;28;20042;-79
2023/08/04 07:22:15;;;;;;;30.10;16.60;;;18.00;99.90;;;;;;4987311;28;20033;-79
2023/08/04 07:24:41;;;;;;;29.05;16.27;;;18.10;99.90;;;;;;4988997;28;20030;-80
2023/08/04 07:27:06;;;;;;;19.45;13.20;;;18.20;99.90;;;;;;4990139;28;20119;-80
2023/08/04 07:29:34;;;;;;;28.45;13.32;;;18.30;99.90;;;;;;4973777;28;20045;-79
2023/08/04 07:32:02;;;;;;;33.47;16.63;;;18.30;99.90;;;;;;4996497;28;20481;-79
2023/08/04 07:34:28;;;;;;;26.38;14.38;;;18.40;99.90;;;;;;4975126;28;20026;-79
2023/08/04 07:36:53;;;;;;;22.92;13.75;;;18.40;99.90;;;;;;5006845;28;20037;-79
2023/08/04 07:39:19;;;;;;;22.58;14.05;;;18.50;99.90;;;;;;5004420;28;20030;-79
2023/08/04 07:41:44;;;;;;;25.70;16.90;;;18.50;99.90;;;;;;4993460;28;20109;-80
2023/08/04 07:44:10;;;;;;;24.50;13.68;;;18.60;99.90;;;;;;4988306;28;20092;-80
2023/08/04 07:46:35;;;;;;;25.75;13.85;;;18.70;99.90;;;;;;4975718;28;20052;-79
2023/08/04 07:49:01;;;;;;;25.10;15.30;;;18.80;99.90;;;;;;5010015;28;20049;-79
2023/08/04 07:51:27;;;;;;;23.70;14.40;;;18.70;99.90;;;;;;4977095;28;20052;-79
2023/08/04 07:53:52;;;;;;;29.98;15.90;;;18.70;99.90;;;;;;5003930;28;20038;-80
2023/08/04 07:56:19;;;;;;;19.13;12.82;;;18.80;99.90;;;;;;4995737;28;20038;-80
2023/08/04 07:58:44;;;;;;;21.10;13.15;;;18.90;99.90;;;;;;5004417;28;20033;-80
2023/08/04 08:01:10;;;;;;;27.33;13.85;;;19.00;99.90;;;;;;5005782;28;20038;-79
2023/08/04 08:03:37;;;;;;;24.27;15.32;;;19.10;99.90;;;;;;5001788;28;20053;-80
2023/08/04 08:06:02;;;;;;;26.20;14.60;;;19.20;99.90;;;;;;5006555;28;20607;-80
2023/08/04 08:08:28;;;;;;;26.70;15.05;;;19.20;99.90;;;;;;4975690;28;20045;-79
2023/08/04 08:10:54;;;;;;;30.50;17.63;;;19.40;99.90;;;;;;4974668;28;20030;-79
2023/08/04 08:13:20;;;;;;;20.17;11.88;;;19.40;99.90;;;;;;5001862;28;20633;-80
2023/08/04 08:15:46;;;;;;;19.65;12.20;;;19.50;99.90;;;;;;4987009;28;20033;-80
2023/08/04 08:18:12;;;;;;;18.25;13.13;;;19.60;99.90;;;;;;5002717;28;20025;-79
2023/08/04 08:20:43;;;;;;;20.25;12.52;;;19.80;99.90;;;;;;5006916;28;20053;-79
2023/08/04 08:23:09;;;;;;;20.33;12.95;;;19.90;99.90;;;;;;4991556;28;20128;-79
2023/08/04 08:25:35;;;;;;;20.60;11.63;;;20.20;99.90;;;;;;5005564;28;20505;-80
2023/08/04 08:28:01;;;;;;;18.80;11.23;;;20.60;99.90;;;;;;5008959;28;20432;-80
2023/08/04 08:30:27;;;;;;;14.98;10.20;;;20.90;99.90;;;;;;4995064;28;20496;-80
2023/08/04 08:32:54;;;;;;;19.52;10.52;;;21.20;99.90;;;;;;5006253;28;20048;-79
2023/08/04 08:35:19;;;;;;;21.60;11.23;;;21.00;99.90;;;;;;4994426;28;20029;-80
2023/08/04 08:37:45;;;;;;;14.85;9.35;;;21.50;99.90;;;;;;4992114;28;20048;-79
2023/08/04 08:40:11;;;;;;;10.63;6.85;;;21.80;99.90;;;;;;4988532;28;20026;-80
2023/08/04 08:42:36;;;;;;;9.75;6.60;;;22.10;99.90;;;;;;4994484;28;20369;-79
2023/08/04 08:45:02;;;;;;;10.18;4.97;;;22.30;99.90;;;;;;4979835;28;20030;-79
2023/08/04 08:47:37;;;;;;;7.97;3.75;;;22.40;99.90;;;;;;5005697;28;20041;-79
2023/08/04 08:50:05;;;;;;;11.85;5.07;;;22.60;99.90;;;;;;4992451;28;20112;-80
2023/08/04 08:52:34;;;;;;;10.55;6.57;;;22.70;99.90;;;;;;4976153;28;20033;-80
2023/08/04 08:55:01;;;;;;;11.80;7.57;;;22.90;99.90;;;;;;4987273;28;20559;-80
2023/08/04 08:57:27;;;;;;;14.05;7.50;;;23.20;99.90;;;;;;4977529;28;20033;-79
2023/08/04 08:59:57;;;;;;;11.60;7.22;;;23.30;99.90;;;;;;4975707;28;20041;-79
2023/08/04 09:02:23;;;;;;;14.40;8.48;;;23.20;99.90;;;;;;4988896;28;20788;-80
2023/08/04 09:04:48;;;;;;;11.25;8.40;;;23.20;99.90;;;;;;4990967;28;20053;-80
2023/08/04 09:07:14;;;;;;;14.27;7.70;;;23.10;99.90;;;;;;4990579;28;20095;-80
2023/08/04 09:09:40;;;;;;;12.30;6.90;;;23.10;99.90;;;;;;5005438;28;20048;-79
2023/08/04 09:12:06;;;;;;;10.15;6.60;;;23.00;99.90;;;;;;4977547;28;20037;-80
2023/08/04 09:14:51;;;;;;;11.68;6.45;;;23.00;99.90;;;;;;4987332;28;20042;-80
2023/08/04 09:17:35;;;;;;;11.02;5.72;;;22.90;99.90;;;;;;4993703;28;20087;-80
2023/08/04 09:20:02;;;;;;;11.23;5.97;;;22.90;99.90;;;;;;4976160;28;20490;-80
2023/08/04 09:22:28;;;;;;;10.10;6.10;;;23.00;99.90;;;;;;4987529;28;20040;-80
2023/08/04 09:24:55;;;;;;;13.70;5.50;;;22.80;99.90;;;;;;4989212;28;20392;-80
2023/08/04 09:27:37;;;;;;;8.10;5.10;;;22.90;99.90;;;;;;4986724;28;20044;-80
2023/08/04 09:30:05;;;;;;;10.50;5.40;;;22.90;99.90;;;;;;5005368;28;20042;-80
2023/08/04 09:32:31;;;;;;;7.57;5.85;;;22.90;99.90;;;;;;4982176;28;20114;-79
2023/08/04 09:35:04;;;;;;;12.93;5.97;;;23.00;99.90;;;;;;4969507;28;20033;-80
2023/08/04 09:37:31;;;;;;;12.65;4.93;;;23.10;99.90;;;;;;4999642;28;20030;-80
2023/08/04 09:39:57;;;;;;;7.20;3.15;;;23.50;99.90;;;;;;4992959;28;20477;-80
2023/08/04 09:42:22;;;;;;;4.18;2.20;;;23.70;99.90;;;;;;4990087;28;20018;-80
2023/08/04 09:44:54;;;;;;;4.00;1.85;;;24.20;99.90;;;;;;5003168;28;20037;-79
2023/08/04 09:47:27;;;;;;;6.07;2.28;;;24.50;99.90;;;;;;4990949;28;20029;-80
2023/08/04 09:49:53;;;;;;;6.03;1.73;;;24.90;99.90;;;;;;4985597;28;20048;-80
2023/08/04 09:52:28;;;;;;;2.53;1.42;;;25.20;99.90;;;;;;5022101;28;20378;-80
2023/08/04 09:54:54;;;;;;;3.83;2.10;;;25.30;99.90;;;;;;4987784;28;20033;-79
2023/08/04 09:57:23;;;;;;;3.50;2.25;;;25.50;99.90;;;;;;4970216;28;20053;-80
2023/08/04 09:59:52;;;;;;;3.25;2.53;;;25.70;99.90;;;;;;4967093;28;20034;-80
2023/08/04 10:02:32;;;;;;;5.93;2.60;;;25.80;99.90;;;;;;4986587;28;20037;-79
2023/08/04 10:04:58;;;;;;;8.77;2.20;;;25.70;99.90;;;;;;4986115;28;20390;-80
2023/08/04 10:07:23;;;;;;;3.63;1.80;;;26.00;99.90;;;;;;5022139;28;20033;-80
2023/08/04 10:09:49;;;;;;;5.22;2.13;;;26.10;99.90;;;;;;4991831;28;20033;-80
2023/08/04 10:12:16;;;;;;;3.50;2.50;;;26.30;99.90;;;;;;4984960;28;20033;-80
2023/08/04 10:14:42;;;;;;;3.42;2.50;;;26.30;99.90;;;;;;5001753;28;20044;-79
2023/08/04 10:17:07;;;;;;;2.97;2.55;;;26.20;99.90;;;;;;4989554;28;20037;-80
2023/08/04 10:19:33;;;;;;;5.25;2.45;;;26.30;99.90;;;;;;5003714;28;20378;-79
2023/08/04 10:22:07;;;;;;;4.32;3.60;;;26.20;99.90;;;;;;4988001;28;20033;-79
2023/08/04 10:24:35;;;;;;;5.40;3.03;;;26.40;99.90;;;;;;4972293;28;20069;-80
2023/08/04 10:27:04;;;;;;;10.18;2.95;;;26.30;99.90;;;;;;4990276;28;20038;-80
2023/08/04 10:29:33;;;;;;;7.82;4.18;;;26.60;99.90;;;;;;4988534;28;20034;-80
2023/08/04 10:32:07;;;;;;;6.22;3.50;;;26.90;99.90;;;;;;4998273;28;20029;-80
2023/08/04 10:34:35;;;;;;;11.00;4.20;;;27.10;99.90;;;;;;4990482;28;20043;-80
2023/08/04 10:37:19;;;;;;;7.72;3.95;;;27.50;99.90;;;;;;4970817;28;20076;-80
2023/08/04 10:39:45;;;;;;;6.07;4.03;;;27.80;99.90;;;;;;5006864;28;20021;-80
2023/08/04 10:42:29;;;;;;;4.45;3.75;;;27.90;99.90;;;;;;5016311;28;20049;-80
2023/08/04 10:45:05;;;;;;;5.88;3.30;;;28.00;99.90;;;;;;4979278;28;20026;-79
2023/08/04 10:47:41;;;;;;;4.90;4.28;;;28.00;99.90;;;;;;4988566;28;20033;-80
2023/08/04 10:50:07;;;;;;;8.27;4.07;;;28.30;99.90;;;;;;4977101;28;20383;-80
2023/08/04 10:52:33;;;;;;;5.97;4.25;;;28.60;99.90;;;;;;4979628;28;20116;-80
2023/08/04 10:55:06;;;;;;;5.10;4.28;;;28.80;99.90;;;;;;4973726;28;20044;-80
2023/08/04 10:57:35;;;;;;;7.53;3.97;;;28.60;99.90;;;;;;4979427;28;20489;-80
2023/08/04 11:00:02;;;;;;;6.00;3.50;;;28.60;99.90;;;;;;4974112;28;20480;-79
2023/08/04 11:02:28;;;;;;;4.82;3.40;;;28.60;99.90;;;;;;4974809;28;20033;-79
2023/08/04 11:04:54;;;;;;;4.18;3.45;;;28.50;99.90;;;;;;4990366;28;20033;-79
2023/08/04 11:07:20;;;;;;;8.48;3.55;;;28.70;99.90;;;;;;4992729;28;20044;-79
2023/08/04 11:09:47;;;;;;;5.78;3.83;;;28.80;99.90;;;;;;4989462;28;20037;-79
2023/08/04 11:12:13;;;;;;;6.07;3.10;;;29.00;99.90;;;;;;4984528;28;20030;-79
2023/08/04 11:14:39;;;;;;;5.20;3.13;;;29.10;99.90;;;;;;4993415;28;20040;-79
2023/08/04 11:17:12;;;;;;;2.95;2.65;;;29.40;99.90;;;;;;4996896;28;20128;-79
2023/08/04 11:19:38;;;;;;;6.88;3.38;;;29.50;99.90;;;;;;4995971;28;20379;-81
2023/08/04 11:22:13;;;;;;;6.90;2.80;;;29.60;99.90;;;;;;4995348;28;20071;-79
2023/08/04 11:24:39;;;;;;;4.15;3.05;;;29.70;99.90;;;;;;4975726;28;20040;-80
2023/08/04 11:27:06;;;;;;;6.18;2.75;;;29.80;99.90;;;;;;4631190;28;10000293;-80
2023/08/04 11:29:34;;;;;;;5.93;3.10;;;29.90;99.90;;;;;;4949929;28;20042;-79
2023/08/04 11:32:01;;;;;;;9.27;3.53;;;29.90;99.90;;;;;;4968531;28;20047;-80
2023/08/04 11:34:28;;;;;;;4.97;2.55;;;29.70;99.90;;;;;;4988788;28;20034;-79
2023/08/04 11:36:54;;;;;;;5.60;2.58;;;29.70;99.80;;;;;;4996252;28;20064;-80
2023/08/04 11:39:19;;;;;;;2.90;2.60;;;29.70;99.90;;;;;;4979149;28;20116;-80
2023/08/04 11:41:46;;;;;;;6.43;3.05;;;29.70;99.70;;;;;;4991142;28;20163;-80
2023/08/04 11:44:14;;;;;;;3.28;2.75;;;29.70;99.30;;;;;;4989137;28;20119;-80
2023/08/04 11:46:41;;;;;;;6.30;2.90;;;29.80;98.40;;;;;;4996106;28;20496;-80
2023/08/04 11:49:08;;;;;;;2.55;1.98;;;29.90;98.20;;;;;;4989439;28;20107;-81
2023/08/04 11:51:34;;;;;;;3.65;2.10;;;29.80;98.40;;;;;;5004004;28;20482;-80
2023/08/04 11:54:00;;;;;;;2.85;2.17;;;29.80;98.60;;;;;;5001534;28;20041;-80
2023/08/04 11:56:39;;;;;;;2.10;1.75;;;29.80;98.40;;;;;;4976549;28;20036;-80
2023/08/04 11:59:11;;;;;;;4.68;2.25;;;29.90;94.30;;;;;;4987913;28;20457;-81
2023/08/04 12:01:38;;;;;;;3.65;1.80;;;29.90;95.50;;;;;;4991673;28;20438;-80
2023/08/04 12:04:25;;;;;;;3.72;2.08;;;30.00;96.80;;;;;;4989708;28;20048;-80
2023/08/04 12:07:01;;;;;;;9.55;2.15;;;30.20;97.20;;;;;;4987770;28;20037;-80
2023/08/04 12:09:26;;;;;;;5.72;2.05;;;30.30;97.00;;;;;;4991327;28;20049;-80
2023/08/04 12:11:52;;;;;;;6.30;2.13;;;30.40;95.20;;;;;;4981291;28;20037;-80
2023/08/04 12:14:19;;;;;;;5.80;2.60;;;30.60;94.60;;;;;;4991823;28;20037;-80
2023/08/04 12:17:01;;;;;;;6.10;2.30;;;30.60;95.20;;;;;;5009151;28;20033;-81
2023/08/04 12:19:28;;;;;;;5.40;2.53;;;30.80;95.40;;;;;;4989639;28;20025;-80
2023/08/04 12:22:00;;;;;;;3.83;2.22;;;31.00;94.80;;;;;;4984990;28;20789;-79
2023/08/04 12:24:26;;;;;;;2.95;2.03;;;31.10;92.80;;;;;;4980014;28;20032;-81
2023/08/04 12:26:52;;;;;;;3.95;2.58;;;31.20;94.50;;;;;;4979464;28;20613;-81
2023/08/04 12:29:18;;;;;;;5.20;2.55;;;30.90;93.50;;;;;;4975489;28;20042;-81
2023/08/04 12:31:43;;;;;;;5.68;2.42;;;30.90;92.30;;;;;;4995653;28;20051;-80
2023/08/04 12:34:10;;;;;;;3.80;2.10;;;30.90;92.00;;;;;;5005588;28;20041;-80
2023/08/04 12:36:35;;;;;;;4.32;1.98;;;30.80;92.30;;;;;;4974521;28;20112;-81
2023/08/04 12:39:04;;;;;;;5.50;2.08;;;30.90;92.20;;;;;;4989338;28;20172;-81